createdAt,value
2018-07-12T00:01:25.717Z,9.40
2018-07-12T00:03:53.141Z,12.97
2018-07-12T00:06:20.579Z,10.97
2018-07-12T00:08:48.061Z,13.23
2018-07-12T00:11:15.489Z,18.10
2018-07-12T00:13:43.027Z,18.57
2018-07-12T00:16:10.477Z,20.00
2018-07-12T00:18:37.903Z,23.60
2018-07-12T00:21:05.405Z,29.83
2018-07-12T00:23:32.890Z,27.63
2018-07-12T00:26:00.355Z,28.90
2018-07-12T00:28:27.812Z,22.17
2018-07-12T00:30:55.255Z,18.43
2018-07-12T00:33:22.683Z,13.57
2018-07-12T00:35:50.146Z,14.00
2018-07-12T00:38:17.620Z,15.77
2018-07-12T00:40:45.059Z,15.40
2018-07-12T00:43:12.530Z,15.50
2018-07-12T00:45:40.070Z,11.80
2018-07-12T00:48:07.512Z,13.40
2018-07-12T00:50:34.998Z,12.90
2018-07-12T00:53:02.442Z,12.43
2018-07-12T00:55:29.938Z,12.40
2018-07-12T00:57:57.318Z,14.03
2018-07-12T01:00:24.744Z,14.10
2018-07-12T01:02:52.134Z,14.13
2018-07-12T01:05:19.570Z,13.93
2018-07-12T01:07:47.056Z,14.60
2018-07-12T01:10:14.490Z,13.93
2018-07-12T01:12:41.951Z,15.27
2018-07-12T01:15:09.379Z,15.40
2018-07-12T01:17:36.817Z,14.07
2018-07-12T01:20:04.236Z,11.83
2018-07-12T01:22:31.675Z,14.63
2018-07-12T01:24:59.146Z,13.63
2018-07-12T01:27:26.612Z,13.37
2018-07-12T01:29:54.300Z,14.73
2018-07-12T01:32:21.748Z,14.53
2018-07-12T01:34:49.178Z,15.27
2018-07-12T01:37:16.622Z,19.57
2018-07-12T01:39:44.048Z,21.60
2018-07-12T01:42:11.486Z,20.67
2018-07-12T01:44:38.924Z,35.33
2018-07-12T01:47:06.374Z,36.10
2018-07-12T01:49:33.802Z,36.57
2018-07-12T01:52:01.241Z,35.90
2018-07-12T01:54:28.718Z,38.73
2018-07-12T01:56:56.174Z,40.70
2018-07-12T01:59:23.580Z,47.73
2018-07-12T02:01:51.083Z,52.43
2018-07-12T02:04:18.514Z,51.27
2018-07-12T02:06:45.944Z,50.33
2018-07-12T02:09:13.405Z,54.60
2018-07-12T02:11:40.829Z,46.20
2018-07-12T02:14:08.263Z,48.00
2018-07-12T02:16:35.698Z,44.33
2018-07-12T02:19:03.137Z,47.23
2018-07-12T02:21:30.569Z,44.50
2018-07-12T02:23:58.022Z,49.83
2018-07-12T02:26:25.492Z,41.33
2018-07-12T02:28:53.175Z,38.00
2018-07-12T02:31:20.634Z,32.20
2018-07-12T02:33:48.053Z,25.53
2018-07-12T02:36:15.446Z,27.63
2018-07-12T02:38:42.877Z,24.80
2018-07-12T02:41:10.304Z,28.40
2018-07-12T02:43:37.738Z,30.50
2018-07-12T02:46:05.264Z,29.93
2018-07-12T02:48:32.707Z,27.43
2018-07-12T02:51:00.162Z,21.73
2018-07-12T02:53:27.642Z,22.70
2018-07-12T02:55:55.077Z,23.70
2018-07-12T02:58:22.524Z,21.30
2018-07-12T03:00:49.967Z,18.50
2018-07-12T03:03:17.414Z,18.13
2018-07-12T03:05:44.848Z,18.50
2018-07-12T03:08:12.256Z,18.20
2018-07-12T03:10:39.722Z,19.27
2018-07-12T03:13:07.226Z,19.30
2018-07-12T03:15:34.644Z,29.67
2018-07-12T03:18:02.088Z,32.03
2018-07-12T03:20:29.533Z,30.37
2018-07-12T03:22:56.997Z,33.17
2018-07-12T03:25:24.453Z,31.40
2018-07-12T03:27:51.882Z,29.33
2018-07-12T03:30:19.345Z,23.27
2018-07-12T03:32:46.777Z,22.97
2018-07-12T03:35:14.224Z,22.60
2018-07-12T03:37:41.696Z,23.27
2018-07-12T03:40:09.149Z,22.10
2018-07-12T03:42:36.616Z,25.47
2018-07-12T03:45:04.078Z,22.40
2018-07-12T03:47:31.510Z,23.50
2018-07-12T03:49:58.922Z,22.40
2018-07-12T03:52:26.412Z,24.57
2018-07-12T03:54:54.023Z,25.90
2018-07-12T03:57:21.460Z,21.50
2018-07-12T03:59:48.874Z,24.77
2018-07-12T04:02:16.336Z,20.47
2018-07-12T04:04:43.777Z,24.27
2018-07-12T04:07:11.211Z,22.03
2018-07-12T04:09:38.685Z,23.10
2018-07-12T04:12:06.405Z,25.30
2018-07-12T04:14:33.801Z,22.17
2018-07-12T04:17:01.226Z,24.83
2018-07-12T04:19:28.676Z,25.37
2018-07-12T04:21:56.178Z,23.83
2018-07-12T04:24:23.599Z,25.20
2018-07-12T04:26:51.021Z,25.53
2018-07-12T04:29:18.467Z,25.10
2018-07-12T04:31:45.873Z,28.53
2018-07-12T04:34:13.293Z,26.97
2018-07-12T04:36:40.749Z,32.43
2018-07-12T04:39:08.159Z,31.80
2018-07-12T04:41:35.587Z,34.13
2018-07-12T04:44:03.076Z,41.83
2018-07-12T04:46:30.490Z,46.67
2018-07-12T04:48:57.921Z,40.07
2018-07-12T04:51:25.327Z,35.43
2018-07-12T04:53:52.747Z,38.07
2018-07-12T04:56:20.231Z,36.30
2018-07-12T04:58:47.637Z,35.93
2018-07-12T05:01:15.083Z,37.23
2018-07-12T05:03:42.524Z,38.33
2018-07-12T05:06:09.931Z,39.97
2018-07-12T05:08:37.342Z,41.27
2018-07-12T05:11:04.808Z,46.60
2018-07-12T05:13:32.285Z,40.60
2018-07-12T05:15:59.806Z,38.60
2018-07-12T05:18:27.277Z,39.00
2018-07-12T05:20:54.742Z,35.57
2018-07-12T05:23:22.206Z,33.57
2018-07-12T05:25:49.640Z,30.33
2018-07-12T05:28:17.118Z,32.97
2018-07-12T05:30:44.603Z,32.17
2018-07-12T05:33:12.016Z,29.20
2018-07-12T05:35:40.358Z,26.80
2018-07-12T05:38:08.985Z,24.40
2018-07-12T05:40:37.655Z,25.40
2018-07-12T05:43:06.464Z,24.10
2018-07-12T05:45:35.157Z,26.23
2018-07-12T05:48:03.863Z,20.37
2018-07-12T05:50:32.551Z,24.37
2018-07-12T05:53:01.175Z,23.37
2018-07-12T05:55:29.879Z,19.37
2018-07-12T05:57:58.494Z,22.37
2018-07-12T06:00:27.143Z,22.73
2018-07-12T06:02:55.817Z,22.00
2018-07-12T06:05:24.556Z,23.23
2018-07-12T06:07:53.614Z,20.27
2018-07-12T06:10:22.303Z,24.57
2018-07-12T06:12:50.968Z,18.80
2018-07-12T06:15:19.583Z,23.83
2018-07-12T06:17:48.264Z,17.27
2018-07-12T06:20:16.941Z,19.83
2018-07-12T06:22:45.697Z,20.00
2018-07-12T06:25:14.423Z,17.43
2018-07-12T06:27:43.093Z,16.17
2018-07-12T06:30:11.820Z,19.80
2018-07-12T06:32:40.481Z,18.60
2018-07-12T06:35:09.225Z,18.17
2018-07-12T06:37:37.884Z,17.63
2018-07-12T06:40:06.585Z,18.40
2018-07-12T06:42:35.293Z,19.30
2018-07-12T06:45:04.036Z,20.03
2018-07-12T06:47:32.661Z,22.37
2018-07-12T06:50:01.373Z,24.43
2018-07-12T06:52:29.978Z,21.20
2018-07-12T06:54:58.629Z,16.23
2018-07-12T06:57:27.272Z,15.90
2018-07-12T06:59:55.958Z,18.83
2018-07-12T07:02:24.605Z,18.07
2018-07-12T07:04:53.225Z,17.70
2018-07-12T07:07:21.841Z,18.17
2018-07-12T07:09:50.462Z,16.87
2018-07-12T07:12:19.093Z,15.20
2018-07-12T07:14:47.802Z,14.90
2018-07-12T07:17:16.415Z,16.47
2018-07-12T07:19:45.098Z,13.50
2018-07-12T07:22:13.756Z,21.40
2018-07-12T07:24:42.394Z,14.70
2018-07-12T07:27:11.098Z,18.50
2018-07-12T07:29:39.726Z,15.87
2018-07-12T07:32:08.394Z,14.77
2018-07-12T07:34:37.008Z,13.20
2018-07-12T07:37:05.376Z,13.87
2018-07-12T07:39:34.013Z,13.83
2018-07-12T07:42:02.689Z,18.90
2018-07-12T07:44:31.350Z,15.40
2018-07-12T07:47:00.021Z,12.27
2018-07-12T07:49:28.650Z,12.00
2018-07-12T07:51:57.315Z,10.83
2018-07-12T07:54:25.983Z,12.20
2018-07-12T07:56:54.624Z,10.50
2018-07-12T07:59:23.329Z,12.60
2018-07-12T08:01:52.034Z,12.00
2018-07-12T08:04:20.664Z,12.90
2018-07-12T08:06:49.323Z,14.47
2018-07-12T08:09:17.958Z,16.73
2018-07-12T08:11:46.646Z,14.97
2018-07-12T08:14:14.936Z,13.93
2018-07-12T08:16:43.619Z,14.20
2018-07-12T08:19:11.959Z,14.97
2018-07-12T08:21:40.609Z,14.20
2018-07-12T08:24:09.216Z,14.30
2018-07-12T08:26:37.863Z,12.73
2018-07-12T08:29:06.563Z,12.77
2018-07-12T08:31:34.859Z,11.87
2018-07-12T08:34:03.558Z,11.30
2018-07-12T08:36:32.192Z,8.13
2018-07-12T08:39:00.909Z,10.23
2018-07-12T08:41:30.472Z,12.10
2018-07-12T08:43:59.109Z,11.43
2018-07-12T08:46:27.769Z,10.37
2018-07-12T08:48:56.479Z,10.00
2018-07-12T08:51:25.251Z,13.03
2018-07-12T08:53:53.925Z,10.93
2018-07-12T08:56:22.656Z,12.93
2018-07-12T08:58:51.373Z,12.23
2018-07-12T09:01:19.965Z,10.63
2018-07-12T09:03:48.716Z,10.13
2018-07-12T09:06:17.384Z,11.50
2018-07-12T09:08:46.040Z,10.03
2018-07-12T09:11:14.754Z,11.70
2018-07-12T09:13:43.382Z,9.23
2018-07-12T09:16:12.012Z,9.03
2018-07-12T09:18:40.644Z,9.10
2018-07-12T09:21:09.278Z,10.57
2018-07-12T09:23:37.870Z,9.83
2018-07-12T09:26:06.487Z,11.93
2018-07-12T09:28:35.151Z,12.10
2018-07-12T09:31:03.819Z,10.83
2018-07-12T09:33:32.495Z,13.23
2018-07-12T09:36:01.104Z,10.87
2018-07-12T09:38:46.241Z,9.63
2018-07-12T09:41:14.959Z,9.57
2018-07-12T09:43:44.764Z,10.80
2018-07-12T09:46:13.494Z,7.40
2018-07-12T09:48:43.346Z,8.60
2018-07-12T09:51:12.895Z,10.23
2018-07-12T09:53:42.617Z,9.07
2018-07-12T09:56:11.306Z,10.80
2018-07-12T09:58:39.979Z,11.00
2018-07-12T10:01:13.897Z,11.93
2018-07-12T10:03:46.139Z,11.10
2018-07-12T10:06:20.185Z,12.00
2018-07-12T10:09:51.769Z,13.23
2018-07-12T10:12:26.337Z,12.40
2018-07-12T10:15:00.219Z,11.37
2018-07-12T10:17:34.197Z,13.33
2018-07-12T10:20:03.646Z,10.10
2018-07-12T10:22:32.281Z,11.40
2018-07-12T10:25:00.928Z,10.27
2018-07-12T10:27:29.592Z,11.90
2018-07-12T10:29:58.365Z,11.77
2018-07-12T10:32:27.049Z,9.97
2018-07-12T10:34:55.684Z,11.50
2018-07-12T10:37:24.368Z,11.20
2018-07-12T10:39:52.992Z,8.83
2018-07-12T10:42:21.654Z,8.60
2018-07-12T10:44:50.348Z,9.80
2018-07-12T10:47:18.968Z,12.27
2018-07-12T10:49:47.613Z,9.40
2018-07-12T10:52:16.249Z,9.70
2018-07-12T10:54:44.950Z,9.50
2018-07-12T10:57:13.543Z,9.03
2018-07-12T10:59:42.181Z,8.97
2018-07-12T11:02:10.941Z,7.37
2018-07-12T11:04:39.621Z,8.90
2018-07-12T11:07:08.161Z,9.03
2018-07-12T11:09:36.792Z,8.17
2018-07-12T11:12:05.423Z,9.30
2018-07-12T11:14:34.066Z,9.70
2018-07-12T11:17:02.709Z,12.13
2018-07-12T11:19:31.356Z,9.13
2018-07-12T11:21:59.986Z,10.00
2018-07-12T11:24:28.639Z,9.13
2018-07-12T11:26:57.286Z,8.60
2018-07-12T11:29:37.260Z,9.03
2018-07-12T11:32:05.975Z,12.77
2018-07-12T11:34:34.604Z,8.37
2018-07-12T11:37:03.295Z,8.43
2018-07-12T11:39:31.895Z,6.50
2018-07-12T11:42:00.539Z,8.23
2018-07-12T11:44:30.645Z,9.13
2018-07-12T11:46:58.924Z,7.60
2018-07-12T11:49:27.533Z,9.57
2018-07-12T11:51:56.251Z,9.97
2018-07-12T11:54:24.895Z,7.93
2018-07-12T11:56:53.852Z,10.60
2018-07-12T11:59:22.465Z,8.30
2018-07-12T12:01:51.159Z,7.47
2018-07-12T12:04:19.815Z,9.57
2018-07-12T12:06:48.644Z,10.93
2018-07-12T12:09:17.240Z,9.03
2018-07-12T12:11:45.924Z,9.27
2018-07-12T12:14:14.556Z,9.93
2018-07-12T12:16:43.268Z,10.03
2018-07-12T12:19:12.053Z,8.43
2018-07-12T12:21:40.657Z,11.43
2018-07-12T12:24:09.336Z,8.83
2018-07-12T12:26:37.985Z,7.70
2018-07-12T12:29:06.264Z,9.47
2018-07-12T12:31:35.048Z,8.40
2018-07-12T12:34:04.021Z,6.90
2018-07-12T12:36:32.677Z,7.03
2018-07-12T12:39:01.385Z,7.90
2018-07-12T12:41:30.286Z,8.13
2018-07-12T12:43:58.981Z,5.87
2018-07-12T12:46:27.656Z,8.40
2018-07-12T12:48:56.326Z,7.47
2018-07-12T12:51:25.147Z,9.50
2018-07-12T12:53:53.814Z,5.47
2018-07-12T12:56:22.437Z,6.37
2018-07-12T12:58:51.322Z,9.03
2018-07-12T13:01:20.031Z,6.43
2018-07-12T13:03:48.759Z,5.60
2018-07-12T13:06:17.462Z,8.97
2018-07-12T13:08:46.157Z,5.97
2018-07-12T13:11:14.822Z,6.13
2018-07-12T13:13:43.519Z,8.73
2018-07-12T13:16:12.907Z,9.10
2018-07-12T13:18:41.654Z,7.40
2018-07-12T13:21:10.413Z,7.93
2018-07-12T13:23:39.085Z,8.43
2018-07-12T13:26:07.847Z,8.70
2018-07-12T13:28:36.544Z,7.83
2018-07-12T13:31:05.246Z,7.00
2018-07-12T13:33:33.564Z,7.83
2018-07-12T13:36:02.232Z,4.93
2018-07-12T13:38:30.842Z,6.20
2018-07-12T13:40:59.872Z,7.00
2018-07-12T13:43:28.622Z,7.33
2018-07-12T13:45:57.233Z,5.33
2018-07-12T13:48:25.985Z,4.83
2018-07-12T13:50:54.643Z,7.43
2018-07-12T13:53:23.295Z,7.40
2018-07-12T13:55:51.867Z,5.70
2018-07-12T13:58:20.489Z,5.47
2018-07-12T14:00:49.135Z,5.07
2018-07-12T14:03:17.793Z,6.17
2018-07-12T14:05:46.450Z,4.97
2018-07-12T14:08:15.182Z,5.67
2018-07-12T14:10:43.836Z,8.53
2018-07-12T14:13:12.465Z,7.47
2018-07-12T14:15:40.721Z,9.47
2018-07-12T14:18:09.306Z,6.73
2018-07-12T14:20:37.920Z,5.33
2018-07-12T14:23:06.558Z,6.33
2018-07-12T14:25:35.194Z,6.93
2018-07-12T14:28:03.470Z,7.03
2018-07-12T14:30:31.712Z,6.97
2018-07-12T14:33:00.400Z,6.47
2018-07-12T14:35:29.076Z,8.03
2018-07-12T14:37:57.703Z,5.50
2018-07-12T14:40:26.371Z,8.03
2018-07-12T14:42:54.967Z,5.23
2018-07-12T14:45:23.562Z,6.13
2018-07-12T14:47:52.206Z,8.57
2018-07-12T14:50:20.967Z,8.87
2018-07-12T14:52:49.632Z,8.07
2018-07-12T14:55:18.275Z,7.07
2018-07-12T14:57:46.980Z,8.63
2018-07-12T15:00:15.646Z,6.07
2018-07-12T15:02:44.383Z,4.47
2018-07-12T15:05:13.066Z,5.00
2018-07-12T15:07:41.724Z,7.43
2018-07-12T15:10:10.443Z,7.00
2018-07-12T15:12:39.126Z,4.33
2018-07-12T15:15:07.880Z,7.60
2018-07-12T15:17:36.497Z,6.40
2018-07-12T15:20:05.165Z,5.17
2018-07-12T15:22:33.838Z,4.87
2018-07-12T15:25:02.079Z,7.67
2018-07-12T15:27:30.785Z,7.57
2018-07-12T15:29:59.442Z,5.97
2018-07-12T15:32:28.095Z,8.57
2018-07-12T15:34:57.084Z,7.43
2018-07-12T15:37:25.721Z,10.00
2018-07-12T15:39:54.372Z,6.60
2018-07-12T15:42:22.987Z,5.17
2018-07-12T15:44:51.802Z,5.40
2018-07-12T15:47:20.564Z,4.63
2018-07-12T15:49:49.205Z,6.10
2018-07-12T15:52:17.466Z,4.73
2018-07-12T15:54:46.086Z,4.13
2018-07-12T15:57:14.684Z,5.75
2018-07-12T15:59:43.420Z,5.35
2018-07-12T16:02:12.171Z,3.80
2018-07-12T16:04:40.817Z,5.78
2018-07-12T16:07:09.476Z,5.47
2018-07-12T16:09:38.145Z,6.28
2018-07-12T16:12:07.329Z,7.67
2018-07-12T16:14:36.521Z,4.90
2018-07-12T16:17:05.251Z,5.10
2018-07-12T16:19:33.943Z,5.60
2018-07-12T16:22:02.651Z,5.90
2018-07-12T16:24:31.342Z,4.47
2018-07-12T16:27:00.357Z,7.23
2018-07-12T16:29:29.077Z,5.87
2018-07-12T16:31:57.788Z,4.77
2018-07-12T16:34:26.462Z,4.17
2018-07-12T16:36:55.082Z,5.93
2018-07-12T16:39:23.770Z,5.50
2018-07-12T16:41:52.519Z,6.47
2018-07-12T16:44:21.098Z,4.73
2018-07-12T16:46:49.757Z,6.73
2018-07-12T16:49:18.429Z,4.93
2018-07-12T16:51:47.116Z,5.70
2018-07-12T16:54:15.761Z,5.60
2018-07-12T16:56:44.413Z,6.93
2018-07-12T16:59:13.113Z,4.93
2018-07-12T17:01:41.727Z,4.37
2018-07-12T17:04:10.445Z,5.07
2018-07-12T17:06:39.155Z,7.20
2018-07-12T17:09:08.638Z,8.00
2018-07-12T17:11:36.994Z,5.13
2018-07-12T17:14:05.753Z,5.00
2018-07-12T17:16:34.408Z,5.87
2018-07-12T17:19:03.056Z,4.90
2018-07-12T17:21:31.794Z,6.53
2018-07-12T17:24:00.411Z,5.97
2018-07-12T17:26:29.032Z,3.53
2018-07-12T17:28:57.719Z,6.33
2018-07-12T17:31:26.386Z,6.27
2018-07-12T17:33:55.217Z,6.57
2018-07-12T17:36:23.864Z,8.03
2018-07-12T17:38:52.563Z,6.17
2018-07-12T17:41:21.240Z,5.70
2018-07-12T17:43:50.035Z,4.33
2018-07-12T17:46:18.680Z,5.80
2018-07-12T17:48:47.285Z,4.67
2018-07-12T17:51:15.937Z,5.57
2018-07-12T17:53:44.639Z,5.00
2018-07-12T17:56:13.339Z,7.00
2018-07-12T17:58:42.018Z,6.47
2018-07-12T18:01:10.706Z,6.37
2018-07-12T18:03:39.330Z,6.63
2018-07-12T18:06:07.950Z,5.17
2018-07-12T18:08:36.573Z,6.70
2018-07-12T18:11:05.338Z,6.43
2018-07-12T18:13:34.011Z,5.70
2018-07-12T18:16:03.781Z,7.27
2018-07-12T18:18:32.430Z,5.77
2018-07-12T18:21:01.021Z,6.63
2018-07-12T18:23:29.749Z,6.30
2018-07-12T18:25:58.383Z,6.73
2018-07-12T18:28:27.051Z,6.40
2018-07-12T18:30:55.711Z,6.27
2018-07-12T18:33:23.973Z,6.43
2018-07-12T18:35:52.611Z,6.47
2018-07-12T18:38:21.249Z,7.60
2018-07-12T18:40:49.940Z,8.40
2018-07-12T18:43:18.614Z,8.73
2018-07-12T18:45:47.348Z,6.40
2018-07-12T18:48:16.024Z,6.43
2018-07-12T18:50:44.690Z,8.33
2018-07-12T18:53:13.388Z,5.80
2018-07-12T18:55:42.010Z,6.50
2018-07-12T18:58:10.691Z,10.93
2018-07-12T19:00:39.335Z,9.40
2018-07-12T19:03:07.997Z,7.87
2018-07-12T19:05:36.667Z,8.43
2018-07-12T19:08:05.398Z,9.30
2018-07-12T19:10:34.033Z,6.67
2018-07-12T19:13:02.699Z,7.33
2018-07-12T19:15:31.380Z,6.57
2018-07-12T19:18:00.049Z,7.83
2018-07-12T19:20:28.642Z,8.93
2018-07-12T19:22:57.282Z,8.63
2018-07-12T19:25:25.967Z,10.13
2018-07-12T19:27:54.622Z,9.43
2018-07-12T19:30:23.260Z,10.43
2018-07-12T19:32:51.986Z,11.13
2018-07-12T19:35:21.963Z,8.60
2018-07-12T19:37:50.594Z,8.57
2018-07-12T19:40:19.281Z,11.80
2018-07-12T19:42:47.917Z,11.83
2018-07-12T19:45:16.627Z,11.73
2018-07-12T19:47:45.250Z,8.77
2018-07-12T19:50:14.705Z,8.50
2018-07-12T19:52:43.069Z,10.93
2018-07-12T19:55:11.755Z,9.63
2018-07-12T19:57:40.462Z,9.80
2018-07-12T20:00:09.100Z,12.23
2018-07-12T20:02:37.818Z,10.50
2018-07-12T20:05:06.546Z,16.03
2018-07-12T20:07:35.183Z,15.27
2018-07-12T20:10:04.770Z,12.50
2018-07-12T20:12:33.446Z,11.87
2018-07-12T20:15:02.110Z,10.70
2018-07-12T20:17:30.738Z,11.63
2018-07-12T20:19:59.450Z,10.50
2018-07-12T20:22:28.131Z,10.13
2018-07-12T20:24:56.748Z,9.20
2018-07-12T20:27:25.415Z,10.83
2018-07-12T20:29:54.145Z,14.23
2018-07-12T20:32:22.821Z,12.60
2018-07-12T20:34:51.497Z,13.93
2018-07-12T20:37:20.145Z,11.97
2018-07-12T20:39:48.757Z,8.67
2018-07-12T20:42:17.399Z,11.80
2018-07-12T20:44:46.166Z,9.67
2018-07-12T20:47:14.740Z,10.87
2018-07-12T20:49:43.339Z,11.13
2018-07-12T20:52:11.972Z,8.73
2018-07-12T20:54:40.673Z,9.20
2018-07-12T20:57:09.280Z,12.13
2018-07-12T20:59:37.942Z,11.80
2018-07-12T21:02:06.555Z,10.63
2018-07-12T21:04:35.218Z,8.80
2018-07-12T21:07:03.811Z,9.70
2018-07-12T21:09:32.423Z,12.03
2018-07-12T21:12:01.074Z,9.93
2018-07-12T21:14:29.697Z,9.07
2018-07-12T21:16:58.295Z,8.27
2018-07-12T21:19:26.901Z,10.87
2018-07-12T21:21:55.677Z,16.13
2018-07-12T21:24:24.305Z,12.67
2018-07-12T21:26:52.939Z,13.87
2018-07-12T21:29:21.600Z,11.40
2018-07-12T21:31:49.907Z,15.00
2018-07-12T21:34:18.522Z,12.23
2018-07-12T21:36:47.172Z,11.53
2018-07-12T21:39:15.920Z,12.80
2018-07-12T21:41:44.545Z,13.87
2018-07-12T21:44:13.164Z,15.27
2018-07-12T21:46:41.819Z,9.10
2018-07-12T21:49:10.452Z,7.17
2018-07-12T21:51:39.172Z,10.20
2018-07-12T21:54:07.820Z,9.50
2018-07-12T21:56:36.513Z,11.13
2018-07-12T21:59:05.235Z,7.70
2018-07-12T22:01:33.892Z,8.33
2018-07-12T22:04:02.553Z,7.63
2018-07-12T22:06:44.619Z,11.57
2018-07-12T22:09:13.245Z,9.53
2018-07-12T22:11:41.886Z,12.47
2018-07-12T22:14:10.537Z,11.27
2018-07-12T22:16:39.184Z,9.47
2018-07-12T22:19:07.845Z,11.07
2018-07-12T22:21:36.593Z,12.03
2018-07-12T22:24:05.308Z,10.03
2018-07-12T22:26:33.914Z,10.40
2018-07-12T22:29:02.596Z,7.23
2018-07-12T22:31:31.266Z,11.40
2018-07-12T22:33:59.888Z,10.07
2018-07-12T22:36:28.578Z,8.53
2018-07-12T22:38:57.224Z,11.47
2018-07-12T22:41:25.953Z,17.27
2018-07-12T22:43:54.619Z,11.33
2018-07-12T22:46:23.260Z,11.90
2018-07-12T22:48:51.908Z,12.77
2018-07-12T22:51:20.509Z,10.63
2018-07-12T22:53:49.208Z,11.17
2018-07-12T22:56:17.895Z,13.93
2018-07-12T22:58:46.499Z,12.67
2018-07-12T23:01:15.115Z,10.77
2018-07-12T23:03:43.755Z,11.17
2018-07-12T23:06:12.367Z,10.77
2018-07-12T23:08:40.978Z,10.57
2018-07-12T23:11:09.609Z,13.90
2018-07-12T23:13:38.253Z,11.33
2018-07-12T23:16:06.898Z,12.77
2018-07-12T23:18:35.532Z,9.63
2018-07-12T23:21:04.140Z,12.10
2018-07-12T23:23:32.748Z,15.83
2018-07-12T23:26:01.374Z,10.77
2018-07-12T23:28:30.045Z,14.40
2018-07-12T23:30:58.701Z,14.13
2018-07-12T23:33:27.353Z,14.93
2018-07-12T23:35:56.064Z,12.63
2018-07-12T23:38:24.734Z,11.60
2018-07-12T23:40:53.389Z,18.17
2018-07-12T23:43:21.986Z,11.93
2018-07-12T23:45:50.629Z,13.43
2018-07-12T23:48:19.281Z,10.13
2018-07-12T23:50:47.943Z,13.73
2018-07-12T23:53:16.698Z,16.33
2018-07-12T23:55:45.290Z,13.93
2018-07-12T23:58:13.914Z,15.80
